Time;durP1;ratioP1;P1;durP2;ratioP2;P2;SDS_P1;SDS_P2;PMS_P1;PMS_P2;Temp;Humidity;BMP_temperature;BMP_pressure;BME280_temperature;BME280_humidity;BME280_pressure;Samples;Min_cycle;Max_cycle;Signal;HPM_P1;HPM_P2
2021/10/12 00:01:34;;;;;;;11.77;10.80;;;11.00;99.90;;;;;;5007494;28;20184;-91
2021/10/12 00:04:02;;;;;;;12.53;8.77;;;12.40;99.90;;;;;;5007223;28;20431;-91
2021/10/12 00:06:30;;;;;;;11.77;7.83;;;12.40;99.90;;;;;;5010604;28;20165;-92
2021/10/12 00:09:01;;;;;;;9.63;7.73;;;10.70;99.90;;;;;;5007217;28;20423;-91
2021/10/12 00:11:26;;;;;;;16.23;8.97;;;12.00;99.90;;;;;;5008692;28;20419;-90
2021/10/12 00:13:55;;;;;;;11.90;10.70;;;;;;;;;;5005474;28;20471;-91
2021/10/12 00:16:23;;;;;;;11.47;9.80;;;11.10;99.90;;;;;;5003401;28;20196;-91
2021/10/12 00:18:49;;;;;;;14.30;6.43;;;11.90;99.90;;;;;;5005036;28;20423;-91
2021/10/12 00:21:16;;;;;;;7.97;7.37;;;11.90;99.90;;;;;;5012446;28;20431;-91
2021/10/12 00:23:44;;;;;;;17.73;8.30;;;13.60;99.90;;;;;;5029912;28;20450;-92
2021/10/12 00:26:16;;;;;;;10.03;8.83;;;12.70;99.90;;;;;;5016932;28;20475;-92
2021/10/12 00:28:51;;;;;;;12.07;10.87;;;11.50;99.90;;;;;;5035459;28;20423;-92
2021/10/12 00:31:45;;;;;;;14.37;9.50;;;10.50;99.90;;;;;;5021088;28;20404;-92
2021/10/12 00:34:42;;;;;;;7.77;6.87;;;12.00;99.90;;;;;;5034701;28;20459;-93
2021/10/12 00:37:12;;;;;;;9.73;7.00;;;11.90;99.90;;;;;;5024797;28;20467;-93
2021/10/12 00:39:43;;;;;;;7.70;7.10;;;12.00;99.90;;;;;;5014030;28;20439;-92
2021/10/12 00:42:09;;;;;;;10.03;7.97;;;11.40;99.90;;;;;;5030280;28;20459;-92
2021/10/12 00:44:43;;;;;;;15.20;9.77;;;13.10;99.90;;;;;;5032407;28;20415;-92
2021/10/12 00:47:13;;;;;;;10.33;8.57;;;11.20;99.90;;;;;;5036676;28;20173;-94
2021/10/12 00:49:47;;;;;;;15.77;8.10;;;11.50;99.90;;;;;;5038153;28;20434;-92
2021/10/12 00:52:16;;;;;;;6.80;6.00;;;12.90;99.90;;;;;;5022040;28;20470;-93
2021/10/12 00:54:46;;;;;;;11.33;7.17;;;11.50;99.90;;;;;;5036621;28;20439;-93
2021/10/12 00:57:14;;;;;;;12.27;7.10;;;10.80;99.90;;;;;;5020031;28;20419;-91
2021/10/12 00:59:44;;;;;;;11.60;7.67;;;12.10;99.90;;;;;;5038637;28;20487;-95
2021/10/12 01:02:47;;;;;;;10.53;7.23;;;12.80;99.90;;;;;;5021279;28;20423;-93
2021/10/12 01:05:18;;;;;;;12.30;7.80;;;12.20;99.90;;;;;;5038255;28;20432;-92
2021/10/12 01:07:52;;;;;;;10.93;7.73;;;11.50;99.90;;;;;;5037697;28;20416;-93
2021/10/12 01:10:30;;;;;;;10.50;8.30;;;10.70;99.90;;;;;;5021378;28;20415;-93
2021/10/12 01:26:13;;;;;;;12.30;9.20;;;10.90;99.90;;;;;;4995953;26;20484;-93
2021/10/12 01:28:40;;;;;;;11.93;8.80;;;11.00;99.90;;;;;;4996414;28;20421;-92
2021/10/12 01:31:23;;;;;;;13.60;9.03;;;12.80;99.90;;;;;;4997239;28;20452;-93
2021/10/12 01:33:52;;;;;;;11.17;9.60;;;10.70;99.90;;;;;;4998366;28;20476;-95
2021/10/12 01:36:22;;;;;;;14.47;10.07;;;11.40;99.90;;;;;;4996919;28;20457;-93
2021/10/12 01:38:59;;;;;;;18.23;9.50;;;11.30;99.90;;;;;;4997182;28;20488;-92
2021/10/12 01:41:37;;;;;;;12.30;9.13;;;10.70;99.90;;;;;;4994456;28;20457;-93
2021/10/12 01:44:09;;;;;;;14.73;9.90;;;10.70;99.90;;;;;;4995859;28;20386;-93
2021/10/12 01:46:41;;;;;;;12.00;9.77;;;11.50;99.90;;;;;;4980688;28;20424;-92
2021/10/12 01:49:17;;;;;;;12.40;10.07;;;11.40;99.90;;;;;;4993697;28;20489;-92
2021/10/12 01:51:46;;;;;;;13.53;10.87;;;11.40;99.90;;;;;;4996615;28;20939;-93
2021/10/12 01:54:41;;;;;;;20.20;12.67;;;13.50;99.90;;;;;;4993392;28;20484;-93
2021/10/12 01:57:14;;;;;;;11.17;9.93;;;11.20;99.90;;;;;;4993922;28;20421;-93
2021/10/12 01:59:46;;;;;;;13.50;10.87;;;12.10;99.90;;;;;;4993372;28;20398;-93
2021/10/12 02:02:12;;;;;;;11.47;9.90;;;10.70;99.90;;;;;;4992393;28;20422;-94
2021/10/12 02:04:49;;;;;;;17.80;11.03;;;13.00;99.90;;;;;;4995621;28;20799;-92
2021/10/12 02:07:15;;;;;;;12.60;9.27;;;11.20;99.90;;;;;;4995687;28;20417;-94
2021/10/12 02:09:45;;;;;;;12.27;9.80;;;10.90;99.90;;;;;;4996898;28;20444;-94
2021/10/12 02:12:17;;;;;;;11.13;9.97;;;12.00;99.90;;;;;;4995130;28;20423;-94
2021/10/12 02:14:49;;;;;;;11.93;10.77;;;11.30;99.90;;;;;;4996143;28;20457;-94
2021/10/12 02:17:15;;;;;;;11.60;10.40;;;11.70;99.90;;;;;;4995325;28;20418;-93
2021/10/12 02:19:51;;;;;;;13.70;9.77;;;13.40;99.90;;;;;;4980348;28;20444;-93
2021/10/12 02:22:30;;;;;;;11.93;10.73;;;12.90;99.90;;;;;;4997804;28;20182;-93
2021/10/12 02:25:07;;;;;;;12.70;11.33;;;11.30;99.90;;;;;;4993857;28;20466;-94
2021/10/12 02:27:45;;;;;;;13.97;12.53;;;11.30;99.90;;;;;;4996027;28;20432;-94
2021/10/12 02:30:32;;;;;;;;;;;;;;;;;;;;;
2021/10/12 02:33:07;;;;;;;18.43;11.33;;;12.40;99.90;;;;;;4996143;28;20484;-94
2021/10/12 02:35:33;;;;;;;19.87;13.73;;;12.80;99.90;;;;;;4993625;28;20432;-94
2021/10/12 02:37:59;;;;;;;15.40;12.40;;;10.80;99.90;;;;;;4992625;28;20421;-92
2021/10/12 02:40:26;;;;;;;16.27;13.07;;;11.50;99.90;;;;;;4993343;28;20500;-94
2021/10/12 02:43:04;;;;;;;17.57;13.47;;;13.50;99.90;;;;;;4994473;28;20405;-95
2021/10/12 02:45:41;;;;;;;16.33;12.40;;;9.90;99.90;;;;;;4994745;28;20397;-93
2021/10/12 02:48:10;;;;;;;17.00;13.20;;;11.30;99.90;;;;;;4991808;28;20417;-92
2021/10/12 02:50:37;;;;;;;22.97;15.67;;;13.20;99.90;;;;;;4994199;28;20450;-92
2021/10/12 02:53:03;;;;;;;19.33;13.03;;;12.20;99.90;;;;;;4992027;28;20507;-93
2021/10/12 02:55:36;;;;;;;13.90;12.50;;;12.40;99.90;;;;;;4989354;28;20433;-93
2021/10/12 02:58:05;;;;;;;27.80;16.07;;;10.50;99.90;;;;;;4992370;28;20413;-93
2021/10/12 03:00:35;;;;;;;17.63;10.93;;;10.80;99.90;;;;;;4990636;28;20444;-93
2021/10/12 03:03:03;;;;;;;11.87;10.77;;;14.00;99.90;;;;;;4994045;28;20505;-93
2021/10/12 03:05:33;;;;;;;14.60;12.10;;;10.70;99.90;;;;;;4991938;28;20433;-94
2021/10/12 03:08:03;;;;;;;13.13;11.77;;;11.10;99.90;;;;;;4991351;28;20427;-94
2021/10/12 03:10:36;;;;;;;18.00;10.50;;;11.30;99.90;;;;;;4991436;28;20437;-94
2021/10/12 03:13:06;;;;;;;11.83;10.30;;;9.70;99.90;;;;;;4993741;28;20516;-94
2021/10/12 03:15:33;;;;;;;14.63;9.93;;;11.90;99.90;;;;;;4993380;28;20453;-94
2021/10/12 03:17:59;;;;;;;12.13;10.00;;;11.00;99.90;;;;;;4994470;28;20436;-94
2021/10/12 03:20:30;;;;;;;13.97;9.23;;;11.90;99.90;;;;;;4993513;28;20448;-93
2021/10/12 03:22:59;;;;;;;15.87;10.07;;;11.90;99.90;;;;;;4981291;28;20485;-93
2021/10/12 03:25:28;;;;;;;13.27;11.07;;;11.00;99.90;;;;;;4996123;28;20437;-93
2021/10/12 03:27:54;;;;;;;12.23;10.50;;;10.80;99.90;;;;;;4992315;28;20577;-94
2021/10/12 03:30:26;;;;;;;8.67;7.63;;;13.20;99.90;;;;;;4993406;28;20452;-93
2021/10/12 03:32:57;;;;;;;11.67;6.57;;;11.10;99.90;;;;;;4994506;28;20281;-93
2021/10/12 03:36:17;;;;;;;9.30;8.30;;;11.80;99.90;;;;;;5016113;28;20432;-94
2021/10/12 03:38:49;;;;;;;12.27;10.20;;;12.00;99.90;;;;;;4994836;28;20440;-93
2021/10/12 03:42:03;;;;;;;14.33;9.00;;;10.80;99.90;;;;;;4996426;28;20405;-93
2021/10/12 03:45:11;;;;;;;11.00;7.70;;;12.40;99.90;;;;;;4994535;28;20448;-95
2021/10/12 03:47:46;;;;;;;9.20;8.30;;;11.30;99.90;;;;;;4998141;28;20484;-92
2021/10/12 03:50:20;;;;;;;16.67;10.07;;;11.50;99.90;;;;;;4997221;28;20432;-92
2021/10/12 03:53:12;;;;;;;13.03;10.03;;;11.50;99.90;;;;;;4997363;28;21000;-92
2021/10/12 03:55:55;;;;;;;23.20;11.87;;;11.90;99.90;;;;;;5069947;23;20465;-92
2021/10/12 03:58:21;;;;;;;15.27;12.80;;;13.50;99.90;;;;;;4973839;28;20434;-93
2021/10/12 04:00:47;;;;;;;21.77;15.00;;;;;;;;;;4976997;28;20429;-91
2021/10/12 04:03:19;;;;;;;18.53;14.73;;;11.10;99.90;;;;;;5101388;23;20279;-93
2021/10/12 04:05:45;;;;;;;26.80;17.77;;;11.60;99.90;;;;;;4952425;29;20432;-93
2021/10/12 04:08:11;;;;;;;26.70;15.17;;;;;;;;;;4954186;29;20451;-91
2021/10/12 04:10:37;;;;;;;21.43;15.23;;;11.10;99.90;;;;;;4944999;29;20184;-92
2021/10/12 04:13:06;;;;;;;31.03;16.97;;;;;;;;;;4935014;29;20460;-92
2021/10/12 04:15:35;;;;;;;19.80;14.40;;;11.00;99.90;;;;;;4946802;29;20213;-92
2021/10/12 04:18:04;;;;;;;21.93;16.30;;;10.40;99.90;;;;;;4950945;29;20423;-93
2021/10/12 04:20:32;;;;;;;25.60;15.43;;;10.70;99.90;;;;;;4932522;29;20885;-92
2021/10/12 04:23:02;;;;;;;19.33;13.37;;;12.40;99.90;;;;;;4947029;29;20416;-93
2021/10/12 04:25:33;;;;;;;22.00;15.00;;;12.50;99.90;;;;;;4948332;29;20420;-92
2021/10/12 04:28:10;;;;;;;16.47;13.33;;;10.00;99.90;;;;;;4934063;29;20592;-93
2021/10/12 04:30:45;;;;;;;14.70;11.53;;;10.00;99.90;;;;;;4950630;29;20434;-91
2021/10/12 04:33:22;;;;;;;19.60;14.47;;;11.20;99.90;;;;;;4935480;29;20447;-92
2021/10/12 04:35:54;;;;;;;22.70;16.73;;;11.50;99.90;;;;;;4948370;29;20427;-92
2021/10/12 04:38:24;;;;;;;24.97;18.00;;;11.00;99.90;;;;;;4947533;29;20483;-91
2021/10/12 04:40:51;;;;;;;24.30;17.90;;;12.00;99.90;;;;;;4945111;29;20400;-93
2021/10/12 04:43:17;;;;;;;27.67;19.60;;;14.70;99.90;;;;;;4952254;29;20443;-92
2021/10/12 04:45:43;;;;;;;34.33;21.90;;;;;;;;;;4951064;29;20432;-92
2021/10/12 04:48:36;;;;;;;30.40;21.83;;;10.70;99.90;;;;;;4951672;29;20420;-93
2021/10/12 04:51:24;;;;;;;35.33;20.60;;;10.80;99.90;;;;;;4937857;29;20408;-92
2021/10/12 04:53:52;;;;;;;40.73;22.93;;;10.70;99.90;;;;;;4937713;29;20508;-90
2021/10/12 04:56:26;;;;;;;30.83;22.60;;;13.10;99.90;;;;;;4954031;29;20436;-90
2021/10/12 04:58:51;;;;;;;34.10;21.87;;;11.50;99.90;;;;;;4937267;29;20412;-91
2021/10/12 05:01:42;;;;;;;30.63;24.20;;;13.10;99.90;;;;;;4936194;29;20508;-92
2021/10/12 05:07:11;;;;;;;29.30;20.83;;;11.00;99.90;;;;;;5085642;23;20499;-92
2021/10/12 05:09:37;;;;;;;34.33;24.57;;;9.70;99.90;;;;;;4953730;29;20435;-90
2021/10/12 05:12:25;;;;;;;42.37;21.77;;;13.20;99.90;;;;;;4957241;29;20423;-92
2021/10/12 05:15:28;;;;;;;29.93;22.60;;;12.20;99.90;;;;;;4959078;29;20163;-92
2021/10/12 05:18:21;;;;;;;28.10;22.83;;;11.70;99.90;;;;;;4949970;28;20577;-92
2021/10/12 05:21:18;;;;;;;27.27;19.23;;;11.40;99.90;;;;;;4608028;29;10000382;-91
2021/10/12 05:24:09;;;;;;;23.50;18.40;;;11.50;99.90;;;;;;4975890;23;20298;-90
2021/10/12 05:26:36;;;;;;;29.83;18.37;;;10.80;99.90;;;;;;4950014;29;20435;-91
2021/10/12 05:29:12;;;;;;;32.00;18.80;;;13.20;99.90;;;;;;4938348;29;20458;-93
2021/10/12 05:31:43;;;;;;;25.33;17.87;;;12.80;99.90;;;;;;4935575;29;20450;-92
2021/10/12 05:34:12;;;;;;;24.03;17.43;;;12.10;99.90;;;;;;4946293;29;20490;-92
2021/10/12 05:36:37;;;;;;;27.63;19.37;;;12.80;99.90;;;;;;4946726;29;20416;-89
2021/10/12 05:39:17;;;;;;;29.90;20.83;;;10.50;99.90;;;;;;4934702;29;20487;-91
2021/10/12 05:42:10;;;;;;;23.07;16.37;;;9.80;99.90;;;;;;4936372;29;20175;-91
2021/10/12 05:44:38;;;;;;;20.27;16.50;;;11.40;99.90;;;;;;4920031;29;20930;-90
2021/10/12 05:47:04;;;;;;;29.60;17.87;;;9.20;99.90;;;;;;4953488;29;20468;-91
2021/10/12 05:49:40;;;;;;;18.93;16.20;;;13.70;99.90;;;;;;4953205;29;20419;-92
2021/10/12 05:52:18;;;;;;;20.40;16.90;;;12.20;99.90;;;;;;4953215;29;20199;-92
2021/10/12 05:54:52;;;;;;;24.23;15.90;;;12.40;99.90;;;;;;4938475;29;20471;-90
2021/10/12 05:57:42;;;;;;;22.33;16.40;;;12.00;99.90;;;;;;4951549;29;20545;-91
2021/10/12 06:00:16;;;;;;;18.43;14.43;;;9.50;99.90;;;;;;4954802;28;20444;-91
2021/10/12 06:02:42;;;;;;;20.87;14.03;;;;;;;;;;4949829;29;20469;-91
2021/10/12 06:05:08;;;;;;;23.23;15.50;;;10.60;99.90;;;;;;4953850;29;20427;-89
2021/10/12 06:07:34;;;;;;;22.73;15.63;;;;;;;;;;4952809;29;20430;-93
2021/10/12 06:10:10;;;;;;;19.37;16.07;;;10.60;99.90;;;;;;4952495;29;20471;-92
2021/10/12 06:12:56;;;;;;;21.63;17.03;;;12.20;99.90;;;;;;4952868;29;20513;-90
2021/10/12 06:15:32;;;;;;;21.10;17.80;;;9.30;99.90;;;;;;4939629;29;20483;-91
2021/10/12 06:18:24;;;;;;;22.73;16.43;;;10.70;99.90;;;;;;4932803;29;20427;-92
2021/10/12 06:21:05;;;;;;;22.50;15.80;;;11.60;99.90;;;;;;4954940;29;20408;-91
2021/10/12 06:23:37;;;;;;;16.87;12.37;;;10.60;99.90;;;;;;4949429;29;20522;-92
2021/10/12 06:26:06;;;;;;;19.77;13.20;;;10.60;99.90;;;;;;4953951;29;20414;-90
2021/10/12 06:28:37;;;;;;;18.30;11.80;;;10.80;99.90;;;;;;4953440;29;20440;-91
2021/10/12 06:31:15;;;;;;;20.23;13.90;;;13.10;99.90;;;;;;4947854;29;20562;-93
2021/10/12 06:33:41;;;;;;;15.50;13.80;;;11.30;99.90;;;;;;4942674;29;20470;-91
2021/10/12 06:36:07;;;;;;;20.47;13.77;;;10.70;99.90;;;;;;4961433;29;20436;-91
2021/10/12 06:38:34;;;;;;;11.80;10.47;;;;;;;;;;4946945;29;20444;-92
2021/10/12 06:41:02;;;;;;;11.90;10.70;;;10.60;99.90;;;;;;4930617;29;20436;-91
2021/10/12 06:43:28;;;;;;;14.83;11.83;;;10.80;99.90;;;;;;4929111;29;20408;-90
2021/10/12 06:45:54;;;;;;;12.37;11.17;;;12.40;99.90;;;;;;4942805;29;20440;-90
2021/10/12 06:48:20;;;;;;;12.07;10.77;;;;;;;;;;4938649;29;20599;-91
2021/10/12 06:50:49;;;;;;;16.53;11.60;;;10.70;99.90;;;;;;4954511;29;20647;-94
2021/10/12 06:53:15;;;;;;;12.47;9.80;;;11.40;99.90;;;;;;4947937;29;20473;-91
2021/10/12 06:55:40;;;;;;;10.47;9.00;;;12.30;99.90;;;;;;4941328;29;20882;-92
2021/10/12 06:58:20;;;;;;;15.87;11.70;;;10.60;99.90;;;;;;4943327;29;20230;-91
2021/10/12 07:00:46;;;;;;;11.70;10.17;;;10.90;99.90;;;;;;4957734;29;20183;-92
2021/10/12 07:03:14;;;;;;;16.00;12.27;;;11.80;99.90;;;;;;4955619;28;20427;-93
2021/10/12 07:05:40;;;;;;;12.50;10.10;;;9.00;99.90;;;;;;4941658;29;20171;-94
2021/10/12 07:08:09;;;;;;;11.63;8.63;;;10.30;99.90;;;;;;4942340;29;20428;-93
2021/10/12 07:10:34;;;;;;;13.07;10.10;;;10.80;99.90;;;;;;4959214;29;20431;-92
2021/10/12 07:13:08;;;;;;;12.23;9.20;;;12.40;99.90;;;;;;4955684;29;20473;-93
2021/10/12 07:15:37;;;;;;;11.30;9.40;;;11.10;99.90;;;;;;4942410;29;20175;-91
2021/10/12 07:18:03;;;;;;;10.77;9.47;;;11.30;99.90;;;;;;4941821;29;20457;-91
2021/10/12 07:20:29;;;;;;;11.37;10.10;;;12.50;99.90;;;;;;4955019;28;20553;-93
2021/10/12 07:22:57;;;;;;;12.20;9.97;;;12.70;99.90;;;;;;4945941;29;20178;-91
2021/10/12 07:25:23;;;;;;;9.63;8.73;;;11.30;99.90;;;;;;4941061;29;20471;-92
2021/10/12 07:27:49;;;;;;;12.90;10.87;;;;;;;;;;4959446;29;20447;-93
2021/10/12 07:30:15;;;;;;;10.40;9.50;;;10.90;99.90;;;;;;4944315;29;20179;-92
2021/10/12 07:32:51;;;;;;;11.30;8.87;;;10.80;99.90;;;;;;4961929;29;20506;-92
2021/10/12 07:35:17;;;;;;;12.53;11.37;;;10.50;99.90;;;;;;4957732;29;20282;-90
2021/10/12 07:37:47;;;;;;;14.40;11.07;;;10.80;99.90;;;;;;4960429;29;20423;-88
2021/10/12 07:40:13;;;;;;;18.80;12.47;;;12.60;99.90;;;;;;4967553;29;20230;-91
2021/10/12 07:42:44;;;;;;;16.40;13.93;;;12.80;99.90;;;;;;4965181;29;20416;-92
2021/10/12 07:45:11;;;;;;;15.00;11.20;;;10.90;99.90;;;;;;4945235;29;20422;-93
2021/10/12 07:47:37;;;;;;;15.47;12.83;;;11.50;99.90;;;;;;4961121;23;20484;-89
2021/10/12 07:50:04;;;;;;;20.77;12.20;;;12.80;99.90;;;;;;4925398;29;20476;-91
2021/10/12 07:52:31;;;;;;;17.33;12.17;;;10.70;99.90;;;;;;4939106;29;20428;-92
2021/10/12 07:55:26;;;;;;;13.20;11.97;;;13.40;99.90;;;;;;4939350;29;20420;-90
2021/10/12 07:58:01;;;;;;;;;;;;;;;;;;;;;
2021/10/12 08:00:30;;;;;;;20.93;13.90;;;11.30;99.90;;;;;;4925273;29;20487;-91
2021/10/12 08:02:58;;;;;;;13.97;12.40;;;12.70;99.90;;;;;;4939984;29;20420;-89
2021/10/12 08:05:33;;;;;;;15.13;12.90;;;10.80;99.90;;;;;;4939270;29;20427;-92
2021/10/12 08:08:01;;;;;;;20.07;12.77;;;10.70;99.90;;;;;;4935536;29;20427;-90
2021/10/12 08:10:27;;;;;;;11.97;10.90;;;13.30;99.90;;;;;;4920569;29;20412;-91
2021/10/12 08:12:58;;;;;;;16.30;14.67;;;11.20;99.90;;;;;;4919446;29;20505;-91
2021/10/12 08:15:26;;;;;;;14.87;13.47;;;12.60;99.90;;;;;;4935553;29;20249;-92
2021/10/12 08:18:00;;;;;;;19.70;13.90;;;12.50;99.90;;;;;;4923575;29;20428;-91
2021/10/12 08:20:26;;;;;;;16.17;14.40;;;13.30;99.90;;;;;;4926777;29;20527;-91
2021/10/12 08:22:52;;;;;;;17.73;15.37;;;12.00;99.90;;;;;;4935915;29;20459;-91
2021/10/12 08:25:20;;;;;;;19.63;15.53;;;12.40;99.90;;;;;;4956577;29;20495;-92
2021/10/12 08:27:45;;;;;;;21.00;17.63;;;10.00;99.90;;;;;;4934457;29;20523;-92
2021/10/12 08:30:12;;;;;;;27.10;20.43;;;11.60;99.90;;;;;;4930611;29;20416;-92
2021/10/12 08:32:39;;;;;;;29.70;23.00;;;11.40;99.90;;;;;;4923792;29;20175;-92
2021/10/12 08:35:09;;;;;;;27.00;19.60;;;10.40;99.90;;;;;;4939111;29;20470;-91
2021/10/12 08:37:38;;;;;;;24.13;19.20;;;11.40;99.90;;;;;;4924325;29;20424;-89
2021/10/12 08:40:13;;;;;;;22.87;18.13;;;12.00;99.90;;;;;;4929609;29;20435;-92
2021/10/12 08:42:47;;;;;;;23.80;19.07;;;11.40;99.90;;;;;;4928968;29;20420;-90
2021/10/12 08:45:14;;;;;;;26.43;19.03;;;12.50;99.90;;;;;;4928468;29;20423;-90
2021/10/12 08:47:42;;;;;;;22.57;19.50;;;13.20;99.90;;;;;;4913706;29;20563;-87
2021/10/12 08:50:19;;;;;;;24.30;21.60;;;13.10;99.90;;;;;;4922929;29;20432;-87
2021/10/12 08:53:03;;;;;;;28.60;21.47;;;13.10;99.90;;;;;;4934960;29;20414;-94
2021/10/12 08:55:31;;;;;;;29.43;20.10;;;11.60;99.90;;;;;;4919046;29;20456;-91
2021/10/12 08:57:56;;;;;;;32.70;22.20;;;11.60;99.90;;;;;;4929372;29;20412;-90
2021/10/12 09:00:28;;;;;;;32.63;23.27;;;13.00;99.90;;;;;;4903539;29;20511;-90
2021/10/12 09:05:55;;;;;;;35.80;27.73;;;11.70;99.90;;;;;;4900851;29;20774;-88
2021/10/12 09:08:35;;;;;;;31.03;26.37;;;11.40;99.90;;;;;;4901189;29;20435;-89
2021/10/12 09:11:03;;;;;;;30.47;26.20;;;11.70;99.90;;;;;;4885049;29;20424;-88
2021/10/12 09:13:50;;;;;;;29.77;26.00;;;11.60;99.90;;;;;;4884506;29;20544;-88
2021/10/12 09:16:21;;;;;;;34.30;24.97;;;11.50;99.90;;;;;;4901764;29;20443;-89
2021/10/12 09:18:55;;;;;;;34.97;24.90;;;12.60;99.90;;;;;;4919393;29;20412;-89
2021/10/12 09:21:26;;;;;;;29.20;24.37;;;11.60;99.90;;;;;;4903031;29;20416;-88
2021/10/12 09:24:12;;;;;;;30.83;25.47;;;13.40;99.90;;;;;;4903892;29;20764;-88
2021/10/12 09:26:47;;;;;;;28.47;23.20;;;11.40;99.90;;;;;;4903028;29;20416;-88
2021/10/12 09:29:24;;;;;;;34.00;26.43;;;10.50;99.90;;;;;;4919757;29;20423;-89
2021/10/12 09:31:54;;;;;;;27.93;21.70;;;13.50;99.90;;;;;;4920969;29;20907;-88
2021/10/12 09:34:20;;;;;;;32.30;26.07;;;13.50;99.90;;;;;;4918995;29;20475;-90
2021/10/12 09:36:48;;;;;;;26.80;23.80;;;11.90;99.90;;;;;;4922338;29;20428;-90
2021/10/12 09:39:39;;;;;;;25.40;22.73;;;11.60;99.90;;;;;;4930801;29;20476;-90
2021/10/12 09:42:20;;;;;;;29.33;25.53;;;12.60;99.90;;;;;;4918996;29;20484;-92
2021/10/12 09:45:01;;;;;;;24.93;22.23;;;11.80;99.90;;;;;;4937413;29;20446;-92
2021/10/12 09:47:39;;;;;;;27.13;22.40;;;12.40;99.90;;;;;;4937647;29;20468;-90
2021/10/12 09:50:17;;;;;;;28.43;25.43;;;13.50;99.90;;;;;;5013385;23;20472;-93
2021/10/12 09:52:46;;;;;;;27.87;24.30;;;11.60;99.90;;;;;;4963843;28;20438;-92
2021/10/12 09:55:12;;;;;;;23.00;19.77;;;13.40;99.90;;;;;;4938860;29;20431;-86
2021/10/12 10:00:24;;;;;;;;;;;;;;;;;;;;;
2021/10/12 10:03:20;;;;;;;18.23;16.50;;;12.10;99.90;;;;;;5021406;23;20530;-93
2021/10/12 10:05:48;;;;;;;14.20;12.90;;;12.20;99.90;;;;;;4936559;29;20424;-90
2021/10/12 10:08:46;;;;;;;17.07;14.33;;;13.90;99.90;;;;;;4936815;29;20431;-93
2021/10/12 10:11:32;;;;;;;20.50;18.47;;;12.90;99.90;;;;;;4920207;29;20419;-91
2021/10/12 10:14:01;;;;;;;21.53;18.20;;;11.40;99.90;;;;;;4921230;29;20479;-91
2021/10/12 10:16:52;;;;;;;;;;;;;;;;;;;;;
2021/10/12 10:20:07;;;;;;;18.00;16.37;;;13.00;99.90;;;;;;4933684;29;20459;-92
2021/10/12 10:23:09;;;;;;;19.00;14.93;;;13.80;99.90;;;;;;4934456;29;20431;-90
2021/10/12 10:25:59;;;;;;;15.20;13.90;;;12.60;99.90;;;;;;4935583;29;20443;-93
2021/10/12 10:28:27;;;;;;;17.23;15.50;;;13.10;99.90;;;;;;4931406;29;20424;-91
2021/10/12 10:31:14;;;;;;;14.70;13.47;;;12.40;99.90;;;;;;4958657;23;20440;-92
2021/10/12 10:33:55;;;;;;;;;;;;;;;;;;;;;
2021/10/12 10:36:36;;;;;;;13.83;12.63;;;11.10;99.90;;;;;;4954702;29;20442;-92
2021/10/12 10:39:38;;;;;;;14.77;13.13;;;14.20;99.90;;;;;;4954815;29;20503;-93
2021/10/12 10:42:07;;;;;;;16.97;15.33;;;15.00;99.90;;;;;;4934783;29;20762;-91
2021/10/12 10:45:00;;;;;;;16.00;14.60;;;15.10;99.90;;;;;;4946486;29;20455;-91
2021/10/12 10:47:41;;;;;;;18.87;17.10;;;12.80;99.90;;;;;;4943615;29;20432;-93
2021/10/12 10:50:27;;;;;;;18.77;16.70;;;14.20;99.90;;;;;;4924101;29;20432;-91
2021/10/12 10:52:58;;;;;;;20.47;17.57;;;13.40;99.90;;;;;;4936340;29;20503;-89
2021/10/12 10:55:42;;;;;;;17.67;16.17;;;13.50;99.90;;;;;;4940954;29;20792;-91
2021/10/12 10:58:24;;;;;;;18.43;16.73;;;14.30;99.90;;;;;;4924633;29;20418;-93
2021/10/12 11:01:04;;;;;;;;;;;;;;;;;;;;;
2021/10/12 11:03:46;;;;;;;;;;;;;;;;;;;;;
2021/10/12 11:11:44;;;;;;;20.20;17.23;;;12.60;99.90;;;;;;4866841;23;20800;-90
2021/10/12 11:14:10;;;;;;;18.90;16.90;;;14.90;99.90;;;;;;4967510;28;20482;-89
2021/10/12 11:19:15;;;;;;;16.63;15.00;;;12.70;99.90;;;;;;5035082;23;20246;-92
2021/10/12 11:21:56;;;;;;;15.80;14.47;;;13.10;99.90;;;;;;4953030;29;20435;-91
2021/10/12 11:24:32;;;;;;;19.60;17.63;;;11.40;99.90;;;;;;5101151;23;20531;-86
2021/10/12 11:27:20;;;;;;;;;;;;;;;;;;;;;
2021/10/12 11:30:39;;;;;;;16.10;14.80;;;13.70;99.90;;;;;;4952987;29;20915;-89
2021/10/12 11:33:45;;;;;;;;;;;;;;;;;;;;;
2021/10/12 11:36:19;;;;;;;15.63;13.97;;;14.90;99.90;;;;;;4879731;29;20958;-91
2021/10/12 11:39:04;;;;;;;15.17;13.13;;;15.50;99.90;;;;;;4931327;29;20541;-92
2021/10/12 11:41:36;;;;;;;13.47;12.17;;;13.40;99.90;;;;;;4946006;29;20439;-89
2021/10/12 11:44:15;;;;;;;13.30;12.10;;;13.00;99.90;;;;;;4931727;29;20419;-89
2021/10/12 11:46:54;;;;;;;14.77;13.23;;;14.00;99.90;;;;;;4932140;29;20927;-89
2021/10/12 11:49:26;;;;;;;13.90;12.90;;;13.40;99.90;;;;;;4926766;29;20447;-89
2021/10/12 11:51:54;;;;;;;12.63;11.53;;;13.40;99.90;;;;;;4940285;29;20433;-90
2021/10/12 11:54:30;;;;;;;16.27;14.87;;;15.10;99.90;;;;;;4941666;29;20501;-88
2021/10/12 11:56:56;;;;;;;15.27;13.70;;;13.70;99.90;;;;;;4952105;29;20439;-89
2021/10/12 12:00:20;;;;;;;;;;;;;;;;;;;;;
2021/10/12 12:03:12;;;;;;;16.20;14.80;;;14.80;99.90;;;;;;4957877;29;20438;-92
2021/10/12 12:09:29;;;;;;;16.23;14.30;;;14.10;99.90;;;;;;4907009;29;20460;-91
2021/10/12 12:12:05;;;;;;;16.97;15.43;;;14.00;99.90;;;;;;4917460;29;20506;-87
2021/10/12 12:14:31;;;;;;;17.97;16.07;;;15.10;99.90;;;;;;4917228;29;20506;-89
2021/10/12 12:17:22;;;;;;;17.63;16.07;;;15.00;99.90;;;;;;4934038;29;20438;-90
2021/10/12 12:20:05;;;;;;;17.27;15.17;;;13.40;99.90;;;;;;4934518;29;20434;-90
2021/10/12 12:22:31;;;;;;;17.10;15.70;;;13.70;99.90;;;;;;4949906;29;20524;-90
2021/10/12 12:25:14;;;;;;;13.90;12.60;;;12.80;99.90;;;;;;4936725;29;20430;-89
2021/10/12 12:28:13;;;;;;;14.60;13.33;;;14.00;99.90;;;;;;4934476;29;20467;-92
2021/10/12 12:30:55;;;;;;;14.57;13.17;;;14.90;99.90;;;;;;4951700;29;20434;-88
2021/10/12 12:33:21;;;;;;;15.17;13.87;;;13.20;99.90;;;;;;4955546;29;20450;-93
2021/10/12 12:36:04;;;;;;;15.30;13.90;;;14.70;99.90;;;;;;4938755;29;20462;-88
2021/10/12 12:38:46;;;;;;;14.03;13.03;;;14.00;99.90;;;;;;4938148;29;20439;-92
2021/10/12 12:41:23;;;;;;;13.00;11.93;;;13.80;99.90;;;;;;4964574;29;20434;-89
2021/10/12 12:43:54;;;;;;;9.27;8.67;;;16.80;99.90;;;;;;4963958;29;20510;-90
2021/10/12 12:47:02;;;;;;;9.33;8.73;;;14.40;99.90;;;;;;4949871;29;20926;-90
2021/10/12 12:49:32;;;;;;;10.50;9.50;;;15.90;99.90;;;;;;4953264;29;20532;-89
2021/10/12 12:55:05;;;;;;;9.80;9.10;;;14.50;99.90;;;;;;5030038;23;20493;-89
2021/10/12 12:57:31;;;;;;;9.67;8.90;;;14.70;99.90;;;;;;4938974;29;20514;-86
2021/10/12 13:01:08;;;;;;;11.07;9.97;;;14.10;99.90;;;;;;4863398;23;10002567;-92
2021/10/12 13:03:37;;;;;;;13.47;11.60;;;15.00;99.90;;;;;;5166263;23;20486;-89
2021/10/12 13:06:29;;;;;;;11.33;10.43;;;13.60;99.90;;;;;;5126289;23;20556;-94
2021/10/12 13:11:46;;;;;;;11.40;9.33;;;13.50;99.90;;;;;;5064721;23;21014;-90
2021/10/12 13:14:28;;;;;;;6.10;5.63;;;13.30;99.90;;;;;;4937348;29;21124;-91
2021/10/12 13:16:56;;;;;;;6.63;6.22;;;13.10;99.90;;;;;;4953936;28;20417;-91
2021/10/12 13:19:54;;;;;;;5.87;5.50;;;12.80;99.90;;;;;;4956071;28;20175;-92
2021/10/12 13:22:26;;;;;;;5.13;4.83;;;13.90;99.90;;;;;;4953512;29;20414;-90
2021/10/12 13:24:55;;;;;;;5.10;4.60;;;13.30;99.90;;;;;;4941648;29;20430;-89
2021/10/12 13:27:29;;;;;;;3.57;3.37;;;15.20;99.90;;;;;;5240895;23;20499;31
2021/10/12 13:29:55;;;;;;;2.93;2.70;;;13.20;99.90;;;;;;4927517;29;20468;-91
2021/10/12 13:32:31;;;;;;;3.67;2.60;;;14.00;99.90;;;;;;4935914;29;20436;-90
2021/10/12 13:34:57;;;;;;;2.33;1.90;;;13.70;99.90;;;;;;4935188;29;20456;-91
2021/10/12 13:37:24;;;;;;;2.67;1.43;;;15.50;99.90;;;;;;4949204;29;20421;-93
2021/10/12 13:39:51;;;;;;;2.03;1.90;;;13.60;99.90;;;;;;4931869;29;20479;-89
2021/10/12 13:42:24;;;;;;;2.80;1.50;;;14.50;99.90;;;;;;4930499;29;21010;-91
2021/10/12 13:45:31;;;;;;;1.30;1.27;;;15.30;99.90;;;;;;4928245;29;20419;-90
2021/10/12 13:48:28;;;;;;;1.63;1.53;;;14.90;99.90;;;;;;4931549;29;20424;-94
2021/10/12 13:51:05;;;;;;;;;;;;;;;;;;;;;
2021/10/12 13:53:44;;;;;;;2.27;2.20;;;14.60;99.90;;;;;;4934374;29;20519;-92
2021/10/12 13:56:29;;;;;;;1.97;1.70;;;14.80;99.90;;;;;;4935530;29;20412;-89
2021/10/12 14:02:07;;;;;;;2.00;1.90;;;14.70;99.50;;;;;;3644226;23;20471;-91
2021/10/12 14:04:55;;;;;;;5.03;1.80;;;15.00;99.90;;;;;;4925953;29;20439;-92
2021/10/12 14:07:31;;;;;;;6.00;2.37;;;17.00;99.70;;;;;;4933685;29;20448;-94
2021/10/12 14:10:00;;;;;;;3.70;1.90;;;19.40;97.30;;;;;;4935981;29;20506;-92
2021/10/12 14:12:47;;;;;;;2.03;1.93;;;18.10;91.20;;;;;;4929919;29;20427;-93